Аэропорт: Челябинск. Челябинск

ICAO: USCC

METAR:
2024-04-22 21:30:00
USCC 222130Z 06001MPS CAVOK 11/07 Q1025 R09/290050 NOSIG RMK QFE748
TAF:
2024-04-22 19:55:00
TAF USCC 221955Z 2221/2321 08003G12MPS 6000 BKN016 
  TEMPO 2221/2304 0300 FG 
  TEMPO 2304/2315 -SHRA BKN016CB